sensor_id;sensor_type;location;lat;lon;timestamp;temperature;humidity
17849;DHT22;9050;48.746;9.232;2022-07-05T00:00:31;18.70;99.90
17849;DHT22;9050;48.746;9.232;2022-07-05T00:02:58;18.40;99.90
17849;DHT22;9050;48.746;9.232;2022-07-05T00:05:25;18.20;99.90
17849;DHT22;9050;48.746;9.232;2022-07-05T00:07:52;18.00;99.90
17849;DHT22;9050;48.746;9.232;2022-07-05T00:10:19;17.80;99.90
17849;DHT22;9050;48.746;9.232;2022-07-05T00:12:46;17.60;99.90
17849;DHT22;9050;48.746;9.232;2022-07-05T00:15:13;17.70;99.90
17849;DHT22;9050;48.746;9.232;2022-07-05T00:17:41;17.80;99.90
17849;DHT22;9050;48.746;9.232;2022-07-05T00:20:09;17.60;99.90
17849;DHT22;9050;48.746;9.232;2022-07-05T00:22:36;17.70;99.90
17849;DHT22;9050;48.746;9.232;2022-07-05T00:25:04;17.60;99.90
17849;DHT22;9050;48.746;9.232;2022-07-05T00:27:30;17.60;99.90
17849;DHT22;9050;48.746;9.232;2022-07-05T00:29:57;17.50;99.90
17849;DHT22;9050;48.746;9.232;2022-07-05T00:32:24;17.50;99.90
17849;DHT22;9050;48.746;9.232;2022-07-05T00:34:53;17.60;99.90
17849;DHT22;9050;48.746;9.232;2022-07-05T00:37:19;17.70;99.90
17849;DHT22;9050;48.746;9.232;2022-07-05T00:39:46;17.90;99.90
17849;DHT22;9050;48.746;9.232;2022-07-05T00:42:14;18.10;99.90
17849;DHT22;9050;48.746;9.232;2022-07-05T00:44:41;18.20;99.90
17849;DHT22;9050;48.746;9.232;2022-07-05T00:47:09;18.40;99.90
17849;DHT22;9050;48.746;9.232;2022-07-05T00:49:38;18.50;99.90
17849;DHT22;9050;48.746;9.232;2022-07-05T00:52:06;18.50;99.90
17849;DHT22;9050;48.746;9.232;2022-07-05T00:54:35;18.40;99.90
17849;DHT22;9050;48.746;9.232;2022-07-05T00:57:03;18.40;99.90
17849;DHT22;9050;48.746;9.232;2022-07-05T00:59:31;18.20;99.90
17849;DHT22;9050;48.746;9.232;2022-07-05T01:01:59;18.00;99.90
17849;DHT22;9050;48.746;9.232;2022-07-05T01:04:26;17.80;99.90
17849;DHT22;9050;48.746;9.232;2022-07-05T01:06:53;17.70;99.90
17849;DHT22;9050;48.746;9.232;2022-07-05T01:09:23;17.70;99.90
17849;DHT22;9050;48.746;9.232;2022-07-05T01:11:50;17.60;99.90
17849;DHT22;9050;48.746;9.232;2022-07-05T01:14:18;17.50;99.90
17849;DHT22;9050;48.746;9.232;2022-07-05T01:16:45;17.50;99.90
17849;DHT22;9050;48.746;9.232;2022-07-05T01:19:13;17.60;99.90
17849;DHT22;9050;48.746;9.232;2022-07-05T01:21:41;17.50;99.90
17849;DHT22;9050;48.746;9.232;2022-07-05T01:24:11;17.50;99.90
17849;DHT22;9050;48.746;9.232;2022-07-05T01:26:39;17.70;99.90
17849;DHT22;9050;48.746;9.232;2022-07-05T01:29:08;17.70;99.90
17849;DHT22;9050;48.746;9.232;2022-07-05T01:31:36;17.70;99.90
17849;DHT22;9050;48.746;9.232;2022-07-05T01:34:04;17.60;99.90
17849;DHT22;9050;48.746;9.232;2022-07-05T01:36:32;17.50;99.90
17849;DHT22;9050;48.746;9.232;2022-07-05T01:38:59;17.60;99.90
17849;DHT22;9050;48.746;9.232;2022-07-05T01:41:27;17.70;99.90
17849;DHT22;9050;48.746;9.232;2022-07-05T01:43:54;17.70;99.90
17849;DHT22;9050;48.746;9.232;2022-07-05T01:46:22;17.70;99.90
17849;DHT22;9050;48.746;9.232;2022-07-05T01:48:53;17.70;99.90
17849;DHT22;9050;48.746;9.232;2022-07-05T01:51:24;17.60;99.90
17849;DHT22;9050;48.746;9.232;2022-07-05T01:53:53;17.60;99.90
17849;DHT22;9050;48.746;9.232;2022-07-05T01:56:20;17.60;99.90
17849;DHT22;9050;48.746;9.232;2022-07-05T01:58:48;17.50;99.90
17849;DHT22;9050;48.746;9.232;2022-07-05T02:01:31;17.50;99.90
17849;DHT22;9050;48.746;9.232;2022-07-05T02:03:59;17.40;99.90
17849;DHT22;9050;48.746;9.232;2022-07-05T02:06:26;17.30;99.90
17849;DHT22;9050;48.746;9.232;2022-07-05T02:08:53;17.30;99.90
17849;DHT22;9050;48.746;9.232;2022-07-05T02:11:20;17.20;99.90
17849;DHT22;9050;48.746;9.232;2022-07-05T02:13:48;17.10;99.90
17849;DHT22;9050;48.746;9.232;2022-07-05T02:16:15;17.10;99.90
17849;DHT22;9050;48.746;9.232;2022-07-05T02:18:42;17.10;99.90
17849;DHT22;9050;48.746;9.232;2022-07-05T02:21:09;17.00;99.90
17849;DHT22;9050;48.746;9.232;2022-07-05T02:23:35;16.90;99.90
17849;DHT22;9050;48.746;9.232;2022-07-05T02:26:02;16.90;99.90
17849;DHT22;9050;48.746;9.232;2022-07-05T02:28:29;16.80;99.90
17849;DHT22;9050;48.746;9.232;2022-07-05T02:30:58;16.70;99.90
17849;DHT22;9050;48.746;9.232;2022-07-05T02:33:25;16.60;99.90
17849;DHT22;9050;48.746;9.232;2022-07-05T02:35:52;16.50;99.90
17849;DHT22;9050;48.746;9.232;2022-07-05T02:38:18;16.30;99.90
17849;DHT22;9050;48.746;9.232;2022-07-05T02:40:45;16.00;99.90
17849;DHT22;9050;48.746;9.232;2022-07-05T02:43:12;15.90;99.90
17849;DHT22;9050;48.746;9.232;2022-07-05T02:45:39;15.80;99.90
17849;DHT22;9050;48.746;9.232;2022-07-05T02:48:07;15.90;99.90
17849;DHT22;9050;48.746;9.232;2022-07-05T02:50:34;16.00;99.90
17849;DHT22;9050;48.746;9.232;2022-07-05T02:53:01;16.20;99.90
17849;DHT22;9050;48.746;9.232;2022-07-05T02:55:28;16.30;99.90
17849;DHT22;9050;48.746;9.232;2022-07-05T02:57:55;16.30;99.90
17849;DHT22;9050;48.746;9.232;2022-07-05T03:00:23;16.30;99.90
17849;DHT22;9050;48.746;9.232;2022-07-05T03:02:50;16.10;99.90
17849;DHT22;9050;48.746;9.232;2022-07-05T03:05:18;16.00;99.90
17849;DHT22;9050;48.746;9.232;2022-07-05T03:07:45;15.90;99.90
17849;DHT22;9050;48.746;9.232;2022-07-05T03:10:12;15.80;99.90
17849;DHT22;9050;48.746;9.232;2022-07-05T03:12:39;15.70;99.90
17849;DHT22;9050;48.746;9.232;2022-07-05T03:15:07;15.50;99.90
17849;DHT22;9050;48.746;9.232;2022-07-05T03:17:34;15.40;99.90
17849;DHT22;9050;48.746;9.232;2022-07-05T03:20:01;15.30;99.90
17849;DHT22;9050;48.746;9.232;2022-07-05T03:22:30;15.20;99.90
17849;DHT22;9050;48.746;9.232;2022-07-05T03:24:56;15.10;99.90
17849;DHT22;9050;48.746;9.232;2022-07-05T03:27:23;15.10;99.90
17849;DHT22;9050;48.746;9.232;2022-07-05T03:29:50;15.10;99.90
17849;DHT22;9050;48.746;9.232;2022-07-05T03:32:17;15.00;99.90
17849;DHT22;9050;48.746;9.232;2022-07-05T03:34:44;14.90;99.90
17849;DHT22;9050;48.746;9.232;2022-07-05T03:37:11;14.90;99.90
17849;DHT22;9050;48.746;9.232;2022-07-05T03:39:39;15.00;99.90
17849;DHT22;9050;48.746;9.232;2022-07-05T03:42:06;15.00;99.90
17849;DHT22;9050;48.746;9.232;2022-07-05T03:44:33;15.10;99.90
17849;DHT22;9050;48.746;9.232;2022-07-05T03:47:00;15.20;99.90
17849;DHT22;9050;48.746;9.232;2022-07-05T03:49:27;15.20;99.90
17849;DHT22;9050;48.746;9.232;2022-07-05T03:51:53;15.10;99.90
17849;DHT22;9050;48.746;9.232;2022-07-05T03:54:20;15.10;99.90
17849;DHT22;9050;48.746;9.232;2022-07-05T03:56:49;15.10;99.90
17849;DHT22;9050;48.746;9.232;2022-07-05T03:59:16;15.10;99.90
17849;DHT22;9050;48.746;9.232;2022-07-05T04:01:43;15.10;99.90
17849;DHT22;9050;48.746;9.232;2022-07-05T04:04:09;15.20;99.90
17849;DHT22;9050;48.746;9.232;2022-07-05T04:06:36;15.20;99.90
17849;DHT22;9050;48.746;9.232;2022-07-05T04:09:03;15.30;99.90
17849;DHT22;9050;48.746;9.232;2022-07-05T04:11:30;15.30;99.90
17849;DHT22;9050;48.746;9.232;2022-07-05T04:13:59;15.40;99.90
17849;DHT22;9050;48.746;9.232;2022-07-05T04:16:25;15.50;99.90
17849;DHT22;9050;48.746;9.232;2022-07-05T04:18:52;15.50;99.90
17849;DHT22;9050;48.746;9.232;2022-07-05T04:21:19;15.50;99.90
17849;DHT22;9050;48.746;9.232;2022-07-05T04:23:46;15.70;99.90
17849;DHT22;9050;48.746;9.232;2022-07-05T04:26:13;15.80;99.90
17849;DHT22;9050;48.746;9.232;2022-07-05T04:28:40;15.80;99.90
17849;DHT22;9050;48.746;9.232;2022-07-05T04:31:08;15.80;99.90
17849;DHT22;9050;48.746;9.232;2022-07-05T04:33:35;15.80;99.90
17849;DHT22;9050;48.746;9.232;2022-07-05T04:36:02;15.90;99.90
17849;DHT22;9050;48.746;9.232;2022-07-05T04:38:29;15.90;99.90
17849;DHT22;9050;48.746;9.232;2022-07-05T04:40:56;16.00;99.90
17849;DHT22;9050;48.746;9.232;2022-07-05T04:43:23;16.00;99.90
17849;DHT22;9050;48.746;9.232;2022-07-05T04:45:50;16.10;99.90
17849;DHT22;9050;48.746;9.232;2022-07-05T04:48:18;16.20;99.90
17849;DHT22;9050;48.746;9.232;2022-07-05T04:50:45;16.30;99.90
17849;DHT22;9050;48.746;9.232;2022-07-05T04:53:12;16.40;99.90
17849;DHT22;9050;48.746;9.232;2022-07-05T04:55:39;16.50;99.90
17849;DHT22;9050;48.746;9.232;2022-07-05T04:58:06;16.70;99.90
17849;DHT22;9050;48.746;9.232;2022-07-05T05:00:33;16.70;99.90
17849;DHT22;9050;48.746;9.232;2022-07-05T05:03:00;16.90;99.90
17849;DHT22;9050;48.746;9.232;2022-07-05T05:05:28;17.10;99.90
17849;DHT22;9050;48.746;9.232;2022-07-05T05:07:55;17.80;99.90
17849;DHT22;9050;48.746;9.232;2022-07-05T05:10:22;19.10;99.90
17849;DHT22;9050;48.746;9.232;2022-07-05T05:12:49;20.30;99.90
17849;DHT22;9050;48.746;9.232;2022-07-05T05:15:16;22.10;99.90
17849;DHT22;9050;48.746;9.232;2022-07-05T05:17:43;22.10;99.90
17849;DHT22;9050;48.746;9.232;2022-07-05T05:20:12;23.30;99.90
17849;DHT22;9050;48.746;9.232;2022-07-05T05:22:42;24.10;99.90
17849;DHT22;9050;48.746;9.232;2022-07-05T05:25:09;25.40;99.90
17849;DHT22;9050;48.746;9.232;2022-07-05T05:27:41;25.60;99.90
17849;DHT22;9050;48.746;9.232;2022-07-05T05:30:09;27.50;99.90
17849;DHT22;9050;48.746;9.232;2022-07-05T05:32:36;26.60;99.90
17849;DHT22;9050;48.746;9.232;2022-07-05T05:35:04;26.80;99.90
17849;DHT22;9050;48.746;9.232;2022-07-05T05:37:31;25.10;99.90
17849;DHT22;9050;48.746;9.232;2022-07-05T05:39:59;26.00;99.90
17849;DHT22;9050;48.746;9.232;2022-07-05T05:42:26;28.00;99.90
17849;DHT22;9050;48.746;9.232;2022-07-05T05:44:53;28.70;99.90
17849;DHT22;9050;48.746;9.232;2022-07-05T05:47:20;29.10;99.90
17849;DHT22;9050;48.746;9.232;2022-07-05T05:49:47;28.50;99.90
17849;DHT22;9050;48.746;9.232;2022-07-05T05:52:14;29.60;99.90
17849;DHT22;9050;48.746;9.232;2022-07-05T05:54:41;29.30;99.90
17849;DHT22;9050;48.746;9.232;2022-07-05T05:57:09;28.80;99.90
17849;DHT22;9050;48.746;9.232;2022-07-05T05:59:36;28.80;99.90
17849;DHT22;9050;48.746;9.232;2022-07-05T06:02:03;27.60;99.90
17849;DHT22;9050;48.746;9.232;2022-07-05T06:04:30;28.10;99.90
17849;DHT22;9050;48.746;9.232;2022-07-05T06:06:57;27.70;99.90
17849;DHT22;9050;48.746;9.232;2022-07-05T06:09:24;27.40;99.90
17849;DHT22;9050;48.746;9.232;2022-07-05T06:11:51;27.00;99.90
17849;DHT22;9050;48.746;9.232;2022-07-05T06:14:19;26.80;99.90
17849;DHT22;9050;48.746;9.232;2022-07-05T06:16:46;27.60;99.90
17849;DHT22;9050;48.746;9.232;2022-07-05T06:19:13;30.00;99.90
17849;DHT22;9050;48.746;9.232;2022-07-05T06:21:40;33.30;99.90
17849;DHT22;9050;48.746;9.232;2022-07-05T06:24:07;32.30;99.90
17849;DHT22;9050;48.746;9.232;2022-07-05T06:26:34;33.20;99.90
17849;DHT22;9050;48.746;9.232;2022-07-05T06:29:00;31.90;99.90
17849;DHT22;9050;48.746;9.232;2022-07-05T06:31:29;31.80;99.90
17849;DHT22;9050;48.746;9.232;2022-07-05T06:33:56;33.60;99.90
17849;DHT22;9050;48.746;9.232;2022-07-05T06:36:23;32.80;99.90
17849;DHT22;9050;48.746;9.232;2022-07-05T06:38:50;30.70;99.90
17849;DHT22;9050;48.746;9.232;2022-07-05T06:41:17;32.10;99.70
17849;DHT22;9050;48.746;9.232;2022-07-05T06:43:44;34.20;98.20
17849;DHT22;9050;48.746;9.232;2022-07-05T06:46:11;32.00;97.60
17849;DHT22;9050;48.746;9.232;2022-07-05T06:48:39;31.30;97.80
17849;DHT22;9050;48.746;9.232;2022-07-05T06:51:06;30.00;99.90
17849;DHT22;9050;48.746;9.232;2022-07-05T06:53:33;30.40;99.90
17849;DHT22;9050;48.746;9.232;2022-07-05T06:56:00;31.10;99.90
17849;DHT22;9050;48.746;9.232;2022-07-05T06:58:26;31.10;99.90
17849;DHT22;9050;48.746;9.232;2022-07-05T07:00:53;32.40;98.60
17849;DHT22;9050;48.746;9.232;2022-07-05T07:03:24;31.20;97.80
17849;DHT22;9050;48.746;9.232;2022-07-05T07:05:52;30.70;99.90
17849;DHT22;9050;48.746;9.232;2022-07-05T07:08:19;32.80;98.60
17849;DHT22;9050;48.746;9.232;2022-07-05T07:11:03;34.30;96.60
17849;DHT22;9050;48.746;9.232;2022-07-05T07:13:30;36.10;96.30
17849;DHT22;9050;48.746;9.232;2022-07-05T07:15:57;35.80;93.30
17849;DHT22;9050;48.746;9.232;2022-07-05T07:18:24;35.80;92.40
17849;DHT22;9050;48.746;9.232;2022-07-05T07:20:53;34.40;93.90
17849;DHT22;9050;48.746;9.232;2022-07-05T07:23:20;35.00;93.00
17849;DHT22;9050;48.746;9.232;2022-07-05T07:25:47;36.30;92.90
17849;DHT22;9050;48.746;9.232;2022-07-05T07:28:13;35.70;92.70
17849;DHT22;9050;48.746;9.232;2022-07-05T07:30:40;35.40;91.90
17849;DHT22;9050;48.746;9.232;2022-07-05T07:33:08;35.00;91.20
17849;DHT22;9050;48.746;9.232;2022-07-05T07:35:34;33.40;92.00
17849;DHT22;9050;48.746;9.232;2022-07-05T07:38:02;33.90;93.10
17849;DHT22;9050;48.746;9.232;2022-07-05T07:40:30;32.60;95.00
17849;DHT22;9050;48.746;9.232;2022-07-05T07:42:56;31.60;93.70
17849;DHT22;9050;48.746;9.232;2022-07-05T07:45:23;32.70;96.70
17849;DHT22;9050;48.746;9.232;2022-07-05T07:47:52;31.60;93.80
17849;DHT22;9050;48.746;9.232;2022-07-05T07:50:19;31.20;94.40
17849;DHT22;9050;48.746;9.232;2022-07-05T07:52:46;30.40;95.10
17849;DHT22;9050;48.746;9.232;2022-07-05T07:55:15;31.90;94.90
17849;DHT22;9050;48.746;9.232;2022-07-05T07:57:42;32.90;93.10
17849;DHT22;9050;48.746;9.232;2022-07-05T08:00:09;34.00;92.80
17849;DHT22;9050;48.746;9.232;2022-07-05T08:02:36;35.60;91.80
17849;DHT22;9050;48.746;9.232;2022-07-05T08:05:04;33.40;93.00
17849;DHT22;9050;48.746;9.232;2022-07-05T08:07:34;32.90;92.90
17849;DHT22;9050;48.746;9.232;2022-07-05T08:10:01;35.90;91.70
17849;DHT22;9050;48.746;9.232;2022-07-05T08:12:30;36.50;90.30
17849;DHT22;9050;48.746;9.232;2022-07-05T08:14:56;37.00;89.20
17849;DHT22;9050;48.746;9.232;2022-07-05T08:17:23;35.30;90.30
17849;DHT22;9050;48.746;9.232;2022-07-05T08:19:50;37.20;90.20
17849;DHT22;9050;48.746;9.232;2022-07-05T08:22:35;37.40;89.50
17849;DHT22;9050;48.746;9.232;2022-07-05T08:25:02;37.20;87.30
17849;DHT22;9050;48.746;9.232;2022-07-05T08:27:30;34.10;90.70
17849;DHT22;9050;48.746;9.232;2022-07-05T08:29:57;34.10;91.10
17849;DHT22;9050;48.746;9.232;2022-07-05T08:32:24;32.50;91.70
17849;DHT22;9050;48.746;9.232;2022-07-05T08:34:51;32.50;92.70
17849;DHT22;9050;48.746;9.232;2022-07-05T08:37:18;30.80;93.20
17849;DHT22;9050;48.746;9.232;2022-07-05T08:39:45;31.10;96.50
17849;DHT22;9050;48.746;9.232;2022-07-05T08:42:13;31.50;94.40
17849;DHT22;9050;48.746;9.232;2022-07-05T08:44:42;31.50;94.00
17849;DHT22;9050;48.746;9.232;2022-07-05T08:47:11;32.00;93.50
17849;DHT22;9050;48.746;9.232;2022-07-05T08:49:39;33.20;91.80
17849;DHT22;9050;48.746;9.232;2022-07-05T08:52:10;31.30;93.00
17849;DHT22;9050;48.746;9.232;2022-07-05T08:54:37;30.90;94.20
17849;DHT22;9050;48.746;9.232;2022-07-05T08:57:04;30.40;94.50
17849;DHT22;9050;48.746;9.232;2022-07-05T08:59:32;30.90;94.10
17849;DHT22;9050;48.746;9.232;2022-07-05T09:02:01;32.30;92.80
17849;DHT22;9050;48.746;9.232;2022-07-05T09:04:30;32.50;93.30
17849;DHT22;9050;48.746;9.232;2022-07-05T09:07:03;32.40;93.40
17849;DHT22;9050;48.746;9.232;2022-07-05T09:09:33;31.00;94.00
17849;DHT22;9050;48.746;9.232;2022-07-05T09:12:00;30.90;93.80
17849;DHT22;9050;48.746;9.232;2022-07-05T09:14:27;30.10;95.20
17849;DHT22;9050;48.746;9.232;2022-07-05T09:16:54;29.00;95.70
17849;DHT22;9050;48.746;9.232;2022-07-05T09:19:22;27.60;97.20
17849;DHT22;9050;48.746;9.232;2022-07-05T09:22:00;26.80;98.30
17849;DHT22;9050;48.746;9.232;2022-07-05T09:24:28;26.20;99.70
17849;DHT22;9050;48.746;9.232;2022-07-05T09:27:02;25.50;99.90
17849;DHT22;9050;48.746;9.232;2022-07-05T09:29:30;24.90;99.90
17849;DHT22;9050;48.746;9.232;2022-07-05T09:31:57;24.50;99.90
17849;DHT22;9050;48.746;9.232;2022-07-05T09:34:25;24.40;99.90
17849;DHT22;9050;48.746;9.232;2022-07-05T09:36:56;24.40;99.90
17849;DHT22;9050;48.746;9.232;2022-07-05T09:39:38;24.40;99.90
17849;DHT22;9050;48.746;9.232;2022-07-05T09:42:16;24.30;99.50
17849;DHT22;9050;48.746;9.232;2022-07-05T09:44:48;24.10;99.90
17849;DHT22;9050;48.746;9.232;2022-07-05T09:47:17;24.10;99.90
17849;DHT22;9050;48.746;9.232;2022-07-05T09:49:47;24.30;99.90
17849;DHT22;9050;48.746;9.232;2022-07-05T09:52:27;24.30;99.90
17849;DHT22;9050;48.746;9.232;2022-07-05T09:55:01;24.20;99.90
17849;DHT22;9050;48.746;9.232;2022-07-05T09:57:28;24.30;99.90
17849;DHT22;9050;48.746;9.232;2022-07-05T09:59:58;24.60;99.90
17849;DHT22;9050;48.746;9.232;2022-07-05T10:02:35;24.60;99.90
17849;DHT22;9050;48.746;9.232;2022-07-05T10:05:11;24.30;99.90
17849;DHT22;9050;48.746;9.232;2022-07-05T10:07:40;24.50;99.90
17849;DHT22;9050;48.746;9.232;2022-07-05T10:10:08;24.30;99.90
17849;DHT22;9050;48.746;9.232;2022-07-05T10:12:37;24.60;99.90
17849;DHT22;9050;48.746;9.232;2022-07-05T10:15:06;24.80;99.20
17849;DHT22;9050;48.746;9.232;2022-07-05T10:17:37;25.00;98.70
17849;DHT22;9050;48.746;9.232;2022-07-05T10:20:12;25.00;98.90
17849;DHT22;9050;48.746;9.232;2022-07-05T10:22:42;25.50;99.70
17849;DHT22;9050;48.746;9.232;2022-07-05T10:25:09;25.00;99.10
17849;DHT22;9050;48.746;9.232;2022-07-05T10:27:37;24.80;97.90
17849;DHT22;9050;48.746;9.232;2022-07-05T10:30:05;24.80;99.50
17849;DHT22;9050;48.746;9.232;2022-07-05T10:32:33;25.00;97.00
17849;DHT22;9050;48.746;9.232;2022-07-05T10:35:01;25.10;97.70
17849;DHT22;9050;48.746;9.232;2022-07-05T10:37:32;25.10;98.60
17849;DHT22;9050;48.746;9.232;2022-07-05T10:40:00;25.00;96.90
17849;DHT22;9050;48.746;9.232;2022-07-05T10:42:31;25.00;97.20
17849;DHT22;9050;48.746;9.232;2022-07-05T10:44:59;25.00;96.50
17849;DHT22;9050;48.746;9.232;2022-07-05T10:47:26;25.00;96.20
17849;DHT22;9050;48.746;9.232;2022-07-05T10:50:03;25.00;97.00
17849;DHT22;9050;48.746;9.232;2022-07-05T10:52:32;25.10;97.00
17849;DHT22;9050;48.746;9.232;2022-07-05T10:55:18;25.10;95.70
17849;DHT22;9050;48.746;9.232;2022-07-05T10:58:18;24.70;96.60
17849;DHT22;9050;48.746;9.232;2022-07-05T11:00:47;24.50;98.60
17849;DHT22;9050;48.746;9.232;2022-07-05T11:03:32;24.30;98.10
17849;DHT22;9050;48.746;9.232;2022-07-05T11:06:00;24.40;98.10
17849;DHT22;9050;48.746;9.232;2022-07-05T11:08:29;24.70;97.70
17849;DHT22;9050;48.746;9.232;2022-07-05T11:11:11;24.80;98.20
17849;DHT22;9050;48.746;9.232;2022-07-05T11:13:40;24.90;99.20
17849;DHT22;9050;48.746;9.232;2022-07-05T11:16:21;25.00;99.90
17849;DHT22;9050;48.746;9.232;2022-07-05T11:18:50;24.80;98.80
17849;DHT22;9050;48.746;9.232;2022-07-05T11:21:18;25.00;99.40
17849;DHT22;9050;48.746;9.232;2022-07-05T11:23:47;25.10;98.60
17849;DHT22;9050;48.746;9.232;2022-07-05T11:26:17;25.20;99.20
17849;DHT22;9050;48.746;9.232;2022-07-05T11:28:45;25.10;99.20
17849;DHT22;9050;48.746;9.232;2022-07-05T11:31:14;24.90;98.90
17849;DHT22;9050;48.746;9.232;2022-07-05T11:34:12;25.00;99.20
17849;DHT22;9050;48.746;9.232;2022-07-05T11:36:39;24.70;98.40
17849;DHT22;9050;48.746;9.232;2022-07-05T11:39:15;24.70;99.90
17849;DHT22;9050;48.746;9.232;2022-07-05T11:41:43;24.60;99.00
17849;DHT22;9050;48.746;9.232;2022-07-05T11:44:11;25.00;98.60
17849;DHT22;9050;48.746;9.232;2022-07-05T11:46:40;25.20;98.50
17849;DHT22;9050;48.746;9.232;2022-07-05T11:49:07;25.00;97.30
17849;DHT22;9050;48.746;9.232;2022-07-05T11:51:34;24.90;99.10
17849;DHT22;9050;48.746;9.232;2022-07-05T11:54:02;24.40;99.20
17849;DHT22;9050;48.746;9.232;2022-07-05T11:56:32;24.30;99.10
17849;DHT22;9050;48.746;9.232;2022-07-05T11:58:59;24.50;98.20
17849;DHT22;9050;48.746;9.232;2022-07-05T12:01:26;24.50;98.10
17849;DHT22;9050;48.746;9.232;2022-07-05T12:03:54;24.80;98.30
17849;DHT22;9050;48.746;9.232;2022-07-05T12:06:22;24.70;98.30
17849;DHT22;9050;48.746;9.232;2022-07-05T12:09:02;24.80;98.00
17849;DHT22;9050;48.746;9.232;2022-07-05T12:11:29;25.00;99.00
17849;DHT22;9050;48.746;9.232;2022-07-05T12:14:21;25.10;99.30
17849;DHT22;9050;48.746;9.232;2022-07-05T12:16:49;24.90;99.60
17849;DHT22;9050;48.746;9.232;2022-07-05T12:19:25;25.00;99.00
17849;DHT22;9050;48.746;9.232;2022-07-05T12:21:53;25.10;98.90
17849;DHT22;9050;48.746;9.232;2022-07-05T12:24:21;25.30;99.90
17849;DHT22;9050;48.746;9.232;2022-07-05T12:26:48;25.00;99.10
17849;DHT22;9050;48.746;9.232;2022-07-05T12:29:16;25.10;99.60
17849;DHT22;9050;48.746;9.232;2022-07-05T12:31:59;25.10;99.90
17849;DHT22;9050;48.746;9.232;2022-07-05T12:34:27;25.40;99.90
17849;DHT22;9050;48.746;9.232;2022-07-05T12:36:55;25.50;99.90
17849;DHT22;9050;48.746;9.232;2022-07-05T12:39:22;25.50;99.60
17849;DHT22;9050;48.746;9.232;2022-07-05T12:41:49;25.70;99.90
17849;DHT22;9050;48.746;9.232;2022-07-05T12:44:18;26.00;99.90
17849;DHT22;9050;48.746;9.232;2022-07-05T12:46:46;25.90;99.70
17849;DHT22;9050;48.746;9.232;2022-07-05T12:49:16;25.10;99.20
17849;DHT22;9050;48.746;9.232;2022-07-05T12:51:44;25.20;99.00
17849;DHT22;9050;48.746;9.232;2022-07-05T12:54:19;25.20;99.60
17849;DHT22;9050;48.746;9.232;2022-07-05T12:57:04;25.50;99.40
17849;DHT22;9050;48.746;9.232;2022-07-05T12:59:58;25.50;99.00
17849;DHT22;9050;48.746;9.232;2022-07-05T13:02:38;25.60;99.30
17849;DHT22;9050;48.746;9.232;2022-07-05T13:05:09;25.50;99.30
17849;DHT22;9050;48.746;9.232;2022-07-05T13:07:42;25.60;99.40
17849;DHT22;9050;48.746;9.232;2022-07-05T13:10:14;25.40;99.70
17849;DHT22;9050;48.746;9.232;2022-07-05T13:12:41;25.50;99.90
17849;DHT22;9050;48.746;9.232;2022-07-05T13:15:09;25.50;99.90
17849;DHT22;9050;48.746;9.232;2022-07-05T13:17:36;25.40;99.90
17849;DHT22;9050;48.746;9.232;2022-07-05T13:20:04;25.30;99.90
17849;DHT22;9050;48.746;9.232;2022-07-05T13:22:33;25.50;99.90
17849;DHT22;9050;48.746;9.232;2022-07-05T13:25:00;25.50;99.90
17849;DHT22;9050;48.746;9.232;2022-07-05T13:27:28;25.60;99.90
17849;DHT22;9050;48.746;9.232;2022-07-05T13:29:55;25.80;99.90
17849;DHT22;9050;48.746;9.232;2022-07-05T13:32:22;25.70;98.80
17849;DHT22;9050;48.746;9.232;2022-07-05T13:34:48;25.60;98.70
17849;DHT22;9050;48.746;9.232;2022-07-05T13:37:16;25.50;99.90
17849;DHT22;9050;48.746;9.232;2022-07-05T13:39:44;25.40;99.90
17849;DHT22;9050;48.746;9.232;2022-07-05T13:42:11;25.50;99.90
17849;DHT22;9050;48.746;9.232;2022-07-05T13:44:38;25.50;99.90
17849;DHT22;9050;48.746;9.232;2022-07-05T13:47:05;25.50;99.60
17849;DHT22;9050;48.746;9.232;2022-07-05T13:49:32;25.50;99.90
17849;DHT22;9050;48.746;9.232;2022-07-05T13:51:59;25.30;99.80
17849;DHT22;9050;48.746;9.232;2022-07-05T13:54:28;24.90;99.90
17849;DHT22;9050;48.746;9.232;2022-07-05T13:56:56;24.90;99.90
17849;DHT22;9050;48.746;9.232;2022-07-05T13:59:23;24.80;99.90
17849;DHT22;9050;48.746;9.232;2022-07-05T14:01:50;25.00;99.90
17849;DHT22;9050;48.746;9.232;2022-07-05T14:04:17;25.40;99.90
17849;DHT22;9050;48.746;9.232;2022-07-05T14:06:44;25.50;99.90
17849;DHT22;9050;48.746;9.232;2022-07-05T14:09:11;25.50;99.90
17849;DHT22;9050;48.746;9.232;2022-07-05T14:11:38;25.20;99.90
17849;DHT22;9050;48.746;9.232;2022-07-05T14:14:07;25.00;99.90
17849;DHT22;9050;48.746;9.232;2022-07-05T14:16:35;25.00;99.90
17849;DHT22;9050;48.746;9.232;2022-07-05T14:19:02;24.60;99.90
17849;DHT22;9050;48.746;9.232;2022-07-05T14:21:29;24.50;99.90
17849;DHT22;9050;48.746;9.232;2022-07-05T14:23:56;24.60;99.90
17849;DHT22;9050;48.746;9.232;2022-07-05T14:26:23;24.60;99.90
17849;DHT22;9050;48.746;9.232;2022-07-05T14:28:53;24.60;99.90
17849;DHT22;9050;48.746;9.232;2022-07-05T14:31:21;24.70;99.90
17849;DHT22;9050;48.746;9.232;2022-07-05T14:33:48;24.90;99.90
17849;DHT22;9050;48.746;9.232;2022-07-05T14:36:15;24.70;99.90
17849;DHT22;9050;48.746;9.232;2022-07-05T14:38:45;24.60;99.90
17849;DHT22;9050;48.746;9.232;2022-07-05T14:41:11;24.70;99.90
17849;DHT22;9050;48.746;9.232;2022-07-05T14:43:38;24.90;99.90
17849;DHT22;9050;48.746;9.232;2022-07-05T14:46:05;25.10;99.90
17849;DHT22;9050;48.746;9.232;2022-07-05T14:48:39;25.00;99.90
17849;DHT22;9050;48.746;9.232;2022-07-05T14:51:06;25.40;99.90
17849;DHT22;9050;48.746;9.232;2022-07-05T14:53:33;25.30;99.90
17849;DHT22;9050;48.746;9.232;2022-07-05T14:56:00;25.00;99.90
17849;DHT22;9050;48.746;9.232;2022-07-05T14:58:27;24.80;99.90
17849;DHT22;9050;48.746;9.232;2022-07-05T15:00:57;25.10;99.90
17849;DHT22;9050;48.746;9.232;2022-07-05T15:03:24;25.20;99.90
17849;DHT22;9050;48.746;9.232;2022-07-05T15:05:52;25.50;99.90
17849;DHT22;9050;48.746;9.232;2022-07-05T15:08:20;25.50;99.90
17849;DHT22;9050;48.746;9.232;2022-07-05T15:10:47;25.50;99.90
17849;DHT22;9050;48.746;9.232;2022-07-05T15:13:14;25.70;99.90
17849;DHT22;9050;48.746;9.232;2022-07-05T15:15:41;25.50;99.90
17849;DHT22;9050;48.746;9.232;2022-07-05T15:18:08;25.80;99.30
17849;DHT22;9050;48.746;9.232;2022-07-05T15:20:35;25.50;99.60
17849;DHT22;9050;48.746;9.232;2022-07-05T15:23:03;25.40;99.10
17849;DHT22;9050;48.746;9.232;2022-07-05T15:25:30;25.50;98.70
17849;DHT22;9050;48.746;9.232;2022-07-05T15:27:57;25.50;99.40
17849;DHT22;9050;48.746;9.232;2022-07-05T15:30:24;25.40;99.50
17849;DHT22;9050;48.746;9.232;2022-07-05T15:32:51;25.40;99.90
17849;DHT22;9050;48.746;9.232;2022-07-05T15:35:18;25.50;99.70
17849;DHT22;9050;48.746;9.232;2022-07-05T15:37:45;25.70;99.90
17849;DHT22;9050;48.746;9.232;2022-07-05T15:40:14;25.70;99.90
17849;DHT22;9050;48.746;9.232;2022-07-05T15:42:41;25.70;99.90
17849;DHT22;9050;48.746;9.232;2022-07-05T15:45:08;25.60;99.10
17849;DHT22;9050;48.746;9.232;2022-07-05T15:47:35;25.80;99.50
17849;DHT22;9050;48.746;9.232;2022-07-05T15:50:05;25.80;99.80
17849;DHT22;9050;48.746;9.232;2022-07-05T15:52:35;25.60;99.90